Overview Statistics Trail Chart Weather Telemetry Raw packets
 

This is the latest recevied weather packets stored in our database for station/object SP4MGL-10. If no packets are shown the sender has not sent any weather packets the latest 10 day(s).

<< 1 2 3 4 5 >>
Time Temp. Humidity Pressure Rain* Wind** Luminosity Snow
1788635838 12.78° C 93% 1013.6 hPa - - - -
1788634938 12.78° C 92% 1013.2 hPa - - - -
1788634038 12.78° C 93% 1013 hPa - - - -
1788633138 12.78° C 92% 1013.1 hPa - - - -
1788632238 12.78° C 92% 1013 hPa - - - -
1788631338 12.78° C 93% 1013 hPa - - - -
1788630302 21.67° C 51% 1012.8 hPa - - - -
1788629924 24.44° C 56% 1012.7 hPa - - - -
1788629560 24.44° C 56% 1013.2 hPa - - - -
1788450714 19.44° C 59% 1016 hPa - - - -
1788449813 20° C 57% 1016.1 hPa - - - -
1788448913 20° C 55% 1016.4 hPa - - - -
1788448013 20.56° C 54% 1016.4 hPa - - - -
1788447117 20.56° C 53% 1016.5 hPa - - - -
1788446213 20.56° C 55% 1016.6 hPa - - - -
1788445313 20.56° C 52% 1016.8 hPa - - - -
1788444413 21.11° C 55% 1016.9 hPa - - - -
1788443513 21.11° C 51% 1017.1 hPa - - - -
1788442612 21.11° C 51% 1017.1 hPa - - - -
1788441712 22.78° C 48% 1017.3 hPa - - - -
1788440812 22.78° C 46% 1017.4 hPa - - - -
1788439912 21.11° C 51% 1017.6 hPa - - - -
1788439011 22.78° C 50% 1017.7 hPa - - - -
1788438111 21.11° C 53% 1017.7 hPa - - - -
1788437211 21.11° C 51% 1017.9 hPa - - - -

* Rain since midnight (hover to see other rain measurements)
** Current wind speed in m/s (hover to see current wind gust speed)